createdAt,value
2023-02-15T00:04:11.102Z,8.98
2023-02-15T00:10:13.096Z,7.75
2023-02-15T00:16:14.870Z,6.93
2023-02-15T00:22:16.668Z,8.30
2023-02-15T00:28:18.470Z,6.38
2023-02-15T00:34:25.739Z,7.88
2023-02-15T00:40:27.541Z,7.85
2023-02-15T00:46:29.450Z,8.13
2023-02-15T00:52:31.241Z,7.95
2023-02-15T00:58:33.358Z,8.45
2023-02-15T01:04:35.319Z,9.00
2023-02-15T01:10:37.537Z,8.75
2023-02-15T01:16:39.373Z,8.32
2023-02-15T01:22:41.281Z,8.82
2023-02-15T01:28:43.340Z,7.85
2023-02-15T01:34:45.080Z,7.82
2023-02-15T01:40:46.793Z,7.38
2023-02-15T01:46:53.075Z,8.70
2023-02-15T01:52:57.610Z,7.65
2023-02-15T01:59:03.923Z,8.05
2023-02-15T02:05:07.663Z,8.35
2023-02-15T02:11:13.916Z,9.20
2023-02-15T02:17:23.086Z,8.48
2023-02-15T02:23:33.651Z,8.38
2023-02-15T02:30:03.460Z,9.23
2023-02-15T02:36:43.158Z,9.55
2023-02-15T02:42:56.101Z,8.75
2023-02-15T02:48:58.105Z,8.82
2023-02-15T02:55:01.305Z,8.18
2023-02-15T03:01:13.389Z,8.70
2023-02-15T03:07:23.440Z,9.15
2023-02-15T03:13:25.720Z,9.43
2023-02-15T03:19:31.937Z,9.60
2023-02-15T03:25:56.804Z,9.15
2023-02-15T03:32:03.907Z,10.73
2023-02-15T03:38:08.470Z,10.02
2023-02-15T03:44:21.170Z,9.68
2023-02-15T03:50:47.053Z,9.82
2023-02-15T03:57:09.992Z,9.13
2023-02-15T04:03:21.342Z,9.73
2023-02-15T04:09:41.634Z,9.95
2023-02-15T04:16:02.161Z,10.73
2023-02-15T04:22:22.938Z,10.80
2023-02-15T04:28:24.647Z,11.15
2023-02-15T04:34:26.743Z,11.88
2023-02-15T04:40:29.425Z,12.18
2023-02-15T04:46:31.238Z,12.80
2023-02-15T04:52:33.137Z,11.77
2023-02-15T04:58:36.097Z,11.00
2023-02-15T05:04:38.019Z,11.30
2023-02-15T05:10:39.861Z,10.48
2023-02-15T05:16:41.763Z,11.23
2023-02-15T05:22:43.618Z,12.68
2023-02-15T05:28:45.352Z,12.13
2023-02-15T05:34:47.192Z,14.32
2023-02-15T05:40:50.194Z,14.43
2023-02-15T05:46:52.016Z,13.77
2023-02-15T05:52:53.864Z,13.65
2023-02-15T05:58:55.952Z,11.95
2023-02-15T06:04:57.678Z,11.77
2023-02-15T06:10:59.438Z,13.40
2023-02-15T06:17:01.187Z,14.32
2023-02-15T06:23:03.145Z,15.57
2023-02-15T06:29:07.043Z,14.90
2023-02-15T06:35:09.323Z,15.10
2023-02-15T06:41:11.093Z,14.45
2023-02-15T06:47:13.108Z,16.15
2023-02-15T06:53:15.030Z,13.48
2023-02-15T06:59:16.943Z,14.85
2023-02-15T07:05:18.761Z,14.20
2023-02-15T07:11:39.093Z,14.75
2023-02-15T07:17:40.940Z,15.77
2023-02-15T07:23:42.723Z,14.85
2023-02-15T07:29:44.535Z,13.35
2023-02-15T07:35:50.658Z,12.77
2023-02-15T07:41:52.556Z,10.02
2023-02-15T07:47:54.463Z,13.55
2023-02-15T07:53:56.322Z,15.55
2023-02-15T07:59:58.295Z,14.25
2023-02-15T08:06:03.402Z,12.25
2023-02-15T08:12:08.235Z,13.63
2023-02-15T08:18:10.023Z,14.25
2023-02-15T08:24:13.713Z,12.80
2023-02-15T08:30:15.763Z,12.77
2023-02-15T08:36:21.079Z,16.83
2023-02-15T08:42:22.809Z,15.63
2023-02-15T08:48:24.692Z,9.73
2023-02-15T08:54:26.749Z,16.00
2023-02-15T09:00:29.346Z,12.60
2023-02-15T09:06:31.500Z,15.27
2023-02-15T09:12:33.268Z,16.40
2023-02-15T09:18:39.110Z,14.10
2023-02-15T09:24:41.143Z,12.27
2023-02-15T09:30:43.006Z,12.27
2023-02-15T09:36:45.322Z,14.57
2023-02-15T09:43:38.232Z,15.13
2023-02-15T09:50:14.218Z,15.05
2023-02-15T09:56:27.152Z,16.15
2023-02-15T10:02:51.221Z,12.93
2023-02-15T10:09:15.491Z,14.10
2023-02-15T10:15:36.293Z,16.43
2023-02-15T10:22:10.667Z,14.63
2023-02-15T10:28:32.600Z,16.80
2023-02-15T10:34:40.448Z,15.77
2023-02-15T10:41:21.484Z,16.35
2023-02-15T10:48:00.269Z,15.88
2023-02-15T10:54:27.482Z,12.00
2023-02-15T11:00:44.867Z,16.48
2023-02-15T11:06:54.808Z,14.95
2023-02-15T11:12:59.112Z,15.52
2023-02-15T11:19:07.213Z,13.90
2023-02-15T11:25:31.253Z,12.75
2023-02-15T11:31:45.452Z,12.90
2023-02-15T11:38:00.038Z,10.65
2023-02-15T11:44:19.745Z,12.95
2023-02-15T11:50:25.401Z,8.43
2023-02-15T11:56:28.012Z,8.55
2023-02-15T12:02:31.190Z,9.00
2023-02-15T12:08:43.047Z,8.35
2023-02-15T12:14:51.432Z,8.25
2023-02-15T12:20:53.438Z,8.43
2023-02-15T12:27:19.951Z,8.90
2023-02-15T12:33:36.243Z,8.60
2023-02-15T12:39:38.074Z,8.98
2023-02-15T12:45:39.974Z,8.85
2023-02-15T12:51:55.188Z,9.40
2023-02-15T12:58:33.643Z,8.85
2023-02-15T13:04:35.666Z,9.02
2023-02-15T13:10:44.061Z,9.27
2023-02-15T13:16:48.214Z,8.57
2023-02-15T13:23:02.701Z,8.15
2023-02-15T13:29:13.817Z,8.77
2023-02-15T13:35:17.903Z,9.02
2023-02-15T13:41:43.218Z,9.43
2023-02-15T13:47:48.128Z,9.35
2023-02-15T13:54:14.651Z,10.10
2023-02-15T14:00:33.561Z,9.82
2023-02-15T14:07:13.704Z,9.13
2023-02-15T14:13:24.422Z,9.60
2023-02-15T14:19:40.389Z,9.82
2023-02-15T14:25:52.337Z,9.85
2023-02-15T14:31:58.876Z,10.43
2023-02-15T14:38:33.562Z,9.52
2023-02-15T14:44:57.760Z,9.55
2023-02-15T14:50:59.916Z,9.03
2023-02-15T14:57:01.722Z,9.40
2023-02-15T15:03:22.744Z,9.02
2023-02-15T15:09:29.701Z,9.20
2023-02-15T15:15:31.671Z,9.27
2023-02-15T15:21:51.976Z,9.40
2023-02-15T15:27:55.519Z,9.93
2023-02-15T15:34:03.358Z,9.03
2023-02-15T15:40:27.528Z,9.73
2023-02-15T15:46:45.204Z,8.95
2023-02-15T15:52:56.581Z,10.00
2023-02-15T15:59:03.563Z,9.65
2023-02-15T16:05:10.150Z,9.68
2023-02-15T16:11:26.388Z,6.57
2023-02-15T16:17:32.766Z,9.48
2023-02-15T16:23:37.291Z,9.65
2023-02-15T16:36:04.383Z,9.85
2023-02-15T16:42:07.192Z,9.80
2023-02-15T16:48:19.259Z,8.68
2023-02-15T16:54:22.977Z,8.57
2023-02-15T17:00:27.693Z,8.53
2023-02-15T17:06:30.518Z,8.80
2023-02-15T17:12:58.892Z,8.70
2023-02-15T17:19:03.252Z,8.60
2023-02-15T17:25:05.607Z,8.52
2023-02-15T17:31:09.341Z,9.65
2023-02-15T17:37:37.498Z,9.93
2023-02-15T17:43:39.282Z,24.05
2023-02-15T17:49:41.095Z,20.55
2023-02-15T17:55:43.604Z,10.50
2023-02-15T18:02:07.478Z,9.40
2023-02-15T18:08:33.383Z,11.45
2023-02-15T18:14:35.248Z,10.63
2023-02-15T18:20:37.353Z,12.15
2023-02-15T18:26:39.207Z,12.23
2023-02-15T18:32:42.107Z,12.70
2023-02-15T18:38:44.105Z,12.30
2023-02-15T18:44:45.993Z,12.10
2023-02-15T18:50:47.971Z,13.48
2023-02-15T18:56:58.491Z,13.80
2023-02-15T19:03:05.018Z,12.77
2023-02-15T19:09:12.551Z,18.10
2023-02-15T19:15:20.232Z,21.25
2023-02-15T19:21:23.311Z,16.42
2023-02-15T19:27:36.126Z,17.05
2023-02-15T19:33:37.960Z,18.23
2023-02-15T19:39:42.565Z,15.90
2023-02-15T19:51:48.136Z,17.38
2023-02-15T19:57:52.172Z,18.63
2023-02-15T20:03:54.546Z,18.25
2023-02-15T20:09:56.467Z,18.17
2023-02-15T20:15:58.344Z,17.33
2023-02-15T20:22:03.600Z,16.58
2023-02-15T20:28:06.154Z,15.25
2023-02-15T20:34:08.079Z,15.32
2023-02-15T20:40:18.684Z,15.00
2023-02-15T20:46:20.515Z,13.55
2023-02-15T20:52:22.345Z,14.73
2023-02-15T20:58:26.944Z,15.73
2023-02-15T21:04:32.362Z,13.95
2023-02-15T21:10:34.823Z,13.95
2023-02-15T21:16:36.691Z,13.77
2023-02-15T21:22:40.484Z,14.20
2023-02-15T21:28:42.271Z,13.73
2023-02-15T21:34:43.995Z,15.23
2023-02-15T21:40:45.750Z,15.18
2023-02-15T21:47:06.146Z,15.20
2023-02-15T21:53:12.218Z,14.18
2023-02-15T21:59:16.069Z,16.45
2023-02-15T22:05:21.104Z,17.60
2023-02-15T22:11:22.922Z,16.25
2023-02-15T22:17:28.176Z,16.58
2023-02-15T22:23:30.027Z,14.65
2023-02-15T22:29:32.835Z,12.80
2023-02-15T22:35:36.880Z,11.88
2023-02-15T22:41:38.749Z,10.57
2023-02-15T22:47:40.494Z,10.43
2023-02-15T22:53:42.561Z,11.23
2023-02-15T22:59:44.661Z,10.38
2023-02-15T23:05:47.715Z,10.75
2023-02-15T23:11:51.363Z,10.88
2023-02-15T23:17:53.223Z,10.53
2023-02-15T23:23:59.036Z,12.05
2023-02-15T23:30:03.074Z,10.57
2023-02-15T23:36:05.174Z,11.80
2023-02-15T23:42:12.940Z,11.00
2023-02-15T23:48:36.218Z,11.20
2023-02-15T23:54:38.034Z,11.55
